Flight Track Log - Related Links

Times and Time Zones

All times are in EDT time to prevent confusion due to time zone crossing. See the EJA829P flight status page for this flight to view local times or setup timezone preferences in your user account.

Time Position Orientation Groundspeed Altitude Reporting Facility
EDT Latitude Longitude Course Direction KTS MPH feet Rate Location/Type
Thu 10:31:39 AM 41.0833 -73.7167 270° West 186 214 1,400  Level New York TRACON
Thu 10:32:39 AM 41.1000 -73.8000 285° West 209 241 4,100 2,850 Climbing New York TRACON
Thu 10:33:39 AM 41.1000 -73.8833 270° West 227 261 7,100 1,950 Climbing New York TRACON
Thu 10:34:39 AM 41.1000 -73.9833 270° West 264 304 8,000 450 Climbing New York TRACON
Thu 10:35:39 AM 41.0833 -74.0667 255° West 267 307 8,000 50 Level New York TRACON
Thu 10:36:39 AM 41.0833 -74.1667 270° West 262 302 8,100 50 Climbing New York TRACON
Thu 10:37:00 AM 41.0669 -74.1525 270° West  Level FlightAware Approximate
Thu 10:37:39 AM 41.0833 -74.2667 270° West 263 303 8,100  Level New York TRACON
Thu 10:38:39 AM 41.0833 -74.3667 270° West 263 303 8,100  Level New York TRACON
Thu 10:39:39 AM 41.0667 -74.4667 258° West 263 303 8,100  Level New York TRACON
Thu 10:40:39 AM 41.0500 -74.5500 255° West 273 314 8,100  Level New York TRACON
Thu 10:41:39 AM 40.9667 -74.5833 197° South 273 314 8,100 -50 Level New York TRACON
Thu 10:42:39 AM 40.9000 -74.6000 191° South 275 316 8,000  Descending New York TRACON
Thu 10:43:39 AM 40.8333 -74.6333 201° Southwest 273 314 8,100 50 Climbing New York TRACON
Thu 10:44:39 AM 40.7500 -74.6667 197° South 278 320 8,100 -50 Level New York TRACON
Thu 10:45:39 AM 40.6833 -74.7000 201° Southwest 276 318 8,000 -561 Descending New York TRACON
Thu 10:47:30 AM 40.5667 -74.8167 217° Southwest 277 319 6,500 -947 Descending Philadelphia TRACON
Thu 10:48:30 AM 40.5000 -74.8500 201° Southwest 269 310 5,300 -1,316 Descending Philadelphia TRACON
Thu 10:49:24 AM 40.4333 -74.8667 191° South 268 308 4,000 -650 Descending Philadelphia TRACON
Thu 10:50:30 AM 40.3667 -74.8833 191° South 262 302 4,000  Level Philadelphia TRACON
Thu 10:51:30 AM 40.2833 -74.8667 171° South 261 300 4,000 -455 Level Philadelphia TRACON
Thu 10:52:42 AM 40.2000 -74.8667 180° South 256 295 3,000 -864 Descending Philadelphia TRACON
Thu 10:53:42 AM 40.1500 -74.9167 217° Southwest 204 235 2,100 -950 Descending Philadelphia TRACON
Thu 10:54:42 AM 40.1333 -74.9500 237° Southwest 129 148 1,100 -789 Descending Philadelphia TRACON
Thu 10:55:36 AM 40.1000 -74.9833 217° Southwest 115 132 600 -556 Descending Philadelphia TRACON
Thu 10:57:00 AM 40.0819 -75.0106 197° South  Level Estimated
Thu 11:04:00 AM 40.0819 -75.0106 197° South  Level Estimated

Login

Don't have an account? Register now (free) for customized features, flight alerts, and more!